Terminal Aerodrome Forecast
Issued by NWS

Home | Current Version | Previous Version | Text Only | Print | Product List | Glossary On
Versions: 1 2 3 4 5 6 7 8 9 10 11 12 13 14 15 16 17 18 19 20 21 22 23 24 25 26 27 28 29 30 31 32
000
FTUS43 KDMX 260520
TAFOTM
TAF
KOTM 260520Z 2606/2706 12006KT P6SM BKN070
     FM260900 VRB03KT 3SM BR SCT010 BKN030
     FM261200 09005KT P6SM SCT030 BKN060
     FM262000 12007KT P6SM VCTS SCT040CB BKN100
      TEMPO 2622/2701 3SM TSRA BKN030CB
     FM270500 34005KT P6SM SCT100=

USA.gov is the U.S. government's official web portal to all federal, state and local government web resources and services.